Time;durP1;ratioP1;P1;durP2;ratioP2;P2;SDS_P1;SDS_P2;PMS_P1;PMS_P2;Temp;Humidity;BMP_temperature;BMP_pressure;BME280_temperature;BME280_humidity;BME280_pressure;Samples;Min_cycle;Max_cycle;Signal;HPM_P1;HPM_P2
2022/07/05 00:00:36;;;;;;;3.20;3.00;;;22.80;51.80;;;;;;20474;6854;336824;-87
2022/07/05 00:03:01;;;;;;;4.50;3.13;;;22.80;51.80;;;;;;20717;6854;117519;-87
2022/07/05 00:05:27;;;;;;;3.10;2.90;;;22.60;51.80;;;;;;20709;6854;117317;-87
2022/07/05 00:07:52;;;;;;;3.20;2.90;;;22.30;52.20;;;;;;20695;6854;119164;-87
2022/07/05 00:10:19;;;;;;;3.10;2.90;;;22.00;52.60;;;;;;20708;6854;120192;-87
2022/07/05 00:12:45;;;;;;;3.13;2.83;;;21.90;53.10;;;;;;20705;6854;117183;-87
2022/07/05 00:15:10;;;;;;;3.05;2.95;;;21.70;53.30;;;;;;20502;6854;280600;-87
2022/07/05 00:17:36;;;;;;;3.00;2.80;;;21.90;53.40;;;;;;20501;6854;280497;-86
2022/07/05 00:20:02;;;;;;;2.73;2.60;;;22.30;52.80;;;;;;20692;6854;117822;-87
2022/07/05 00:22:28;;;;;;;2.77;2.57;;;22.20;52.60;;;;;;20694;6854;117426;-87
2022/07/05 00:24:54;;;;;;;3.10;2.70;;;22.00;53.00;;;;;;20506;6854;309496;-87
2022/07/05 00:27:19;;;;;;;2.97;2.87;;;22.10;53.00;;;;;;20494;6854;338935;-87
2022/07/05 00:29:46;;;;;;;2.80;2.70;;;22.30;52.60;;;;;;20706;6854;118039;-87
2022/07/05 00:32:11;;;;;;;3.17;3.00;;;22.30;52.60;;;;;;20693;6854;117424;-87
2022/07/05 00:34:38;;;;;;;3.13;2.93;;;21.80;53.50;;;;;;20720;6854;117195;-87
2022/07/05 00:37:03;;;;;;;3.25;3.05;;;21.70;53.40;;;;;;20515;6854;277799;-87
2022/07/05 00:39:29;;;;;;;3.78;3.50;;;21.90;53.80;;;;;;20508;6854;308256;-87
2022/07/05 00:41:54;;;;;;;3.47;3.10;;;22.20;53.20;;;;;;20686;6854;117366;-87
2022/07/05 00:44:39;;;;;;;3.47;3.27;;;22.10;53.10;;;;;;20503;6854;308070;-87
2022/07/05 00:47:00;;;;;;;3.23;3.03;;;22.20;53.20;;;;;;20685;6853;117214;-87
2022/07/05 00:49:25;;;;;;;2.90;2.80;;;22.00;53.30;;;;;;20715;6854;117395;-87
2022/07/05 00:51:51;;;;;;;3.35;3.08;;;21.70;53.70;;;;;;20477;6854;308823;-87
2022/07/05 00:54:18;;;;;;;3.50;3.20;;;21.80;53.70;;;;;;20504;6854;337609;-87
2022/07/05 00:56:43;;;;;;;3.23;2.97;;;22.10;53.40;;;;;;20717;6854;117412;-87
2022/07/05 00:59:09;;;;;;;3.33;3.12;;;22.00;53.40;;;;;;20480;6854;308340;-87
2022/07/05 01:01:34;;;;;;;2.97;2.70;;;22.00;53.30;;;;;;20702;6854;117787;-87
2022/07/05 01:04:00;;;;;;;3.73;3.43;;;21.80;53.50;;;;;;20684;6854;118012;-87
2022/07/05 01:06:26;;;;;;;3.85;3.60;;;21.60;54.00;;;;;;20494;6854;310312;-87
2022/07/05 01:08:51;;;;;;;3.70;3.40;;;21.60;53.90;;;;;;20718;6854;118194;-87
2022/07/05 01:11:17;;;;;;;4.68;3.40;;;21.50;53.80;;;;;;20489;6854;338591;-87
2022/07/05 01:13:42;;;;;;;4.37;3.00;;;21.60;53.50;;;;;;20703;6854;117491;-86
2022/07/05 01:16:08;;;;;;;3.50;3.08;;;21.40;53.50;;;;;;20488;6854;308997;-87
2022/07/05 01:18:33;;;;;;;4.70;3.30;;;21.50;53.70;;;;;;20707;6854;117679;-87
2022/07/05 01:20:59;;;;;;;3.97;3.00;;;21.30;53.90;;;;;;20695;6854;117557;-87
2022/07/05 01:23:24;;;;;;;4.95;2.80;;;21.10;54.40;;;;;;20707;6854;117462;-87
2022/07/05 01:25:52;;;;;;;3.40;3.20;;;20.90;54.80;;;;;;20678;6854;117287;-87
2022/07/05 01:28:16;;;;;;;3.30;3.10;;;20.70;55.10;;;;;;20494;6854;289443;-87
2022/07/05 01:30:41;;;;;;;3.17;2.97;;;21.00;55.50;;;;;;20706;6854;117288;-87
2022/07/05 01:33:07;;;;;;;3.55;3.28;;;21.20;55.30;;;;;;20504;6854;297957;-87
2022/07/05 01:35:33;;;;;;;3.40;3.20;;;21.20;55.30;;;;;;20694;6854;117858;-87
2022/07/05 01:37:59;;;;;;;3.03;2.83;;;21.00;55.40;;;;;;20674;6854;117287;-86
2022/07/05 01:40:26;;;;;;;3.45;3.25;;;21.30;55.70;;;;;;20497;6854;336802;-86
2022/07/05 01:42:51;;;;;;;3.80;3.23;;;21.20;55.60;;;;;;20706;6854;119188;-87
2022/07/05 01:45:38;;;;;;;3.43;3.23;;;21.20;55.40;;;;;;20712;6854;117700;-86
2022/07/05 01:47:45;;;;;;;3.60;3.30;;;21.00;55.60;;;;;;20446;6854;278247;-87
2022/07/05 01:50:15;;;;;;;3.23;3.03;;;21.10;55.40;;;;;;20679;6854;117112;-87
2022/07/05 01:52:40;;;;;;;4.53;3.50;;;21.10;55.40;;;;;;20707;6854;121631;-87
2022/07/05 01:55:06;;;;;;;3.40;3.20;;;20.90;55.60;;;;;;20706;6854;117970;-87
2022/07/05 01:57:33;;;;;;;3.73;2.97;;;20.70;56.00;;;;;;20707;6853;117274;-86
2022/07/05 01:59:58;;;;;;;3.25;3.08;;;20.60;56.30;;;;;;20490;6854;295322;-87
2022/07/05 02:02:24;;;;;;;3.07;2.87;;;20.80;56.40;;;;;;20705;6854;117272;-87
2022/07/05 02:04:51;;;;;;;2.97;2.87;;;20.70;56.30;;;;;;20715;6854;117426;-87
2022/07/05 02:07:17;;;;;;;2.90;2.70;;;20.60;56.20;;;;;;20737;6854;119358;-87
2022/07/05 02:09:42;;;;;;;3.40;3.20;;;20.50;56.40;;;;;;20505;6854;308421;-89
2022/07/05 02:12:08;;;;;;;3.50;3.20;;;20.80;56.10;;;;;;20446;6854;308452;-86
2022/07/05 02:14:34;;;;;;;3.37;3.07;;;21.20;55.40;;;;;;20702;6854;118414;-87
2022/07/05 02:16:59;;;;;;;3.70;3.50;;;21.10;55.20;;;;;;20715;6854;117375;-86
2022/07/05 02:19:25;;;;;;;3.28;3.10;;;20.90;55.60;;;;;;20498;6854;309953;-87
2022/07/05 02:21:51;;;;;;;3.10;3.00;;;21.00;55.70;;;;;;20689;6854;122546;-86
2022/07/05 02:24:17;;;;;;;3.20;2.90;;;21.00;55.60;;;;;;20714;6854;117324;-86
2022/07/05 02:26:42;;;;;;;3.13;2.97;;;20.80;55.90;;;;;;20711;6854;117402;-86
2022/07/05 02:29:08;;;;;;;3.45;3.25;;;20.60;56.00;;;;;;20772;6854;67351;-86
2022/07/05 02:31:33;;;;;;;3.20;3.10;;;20.50;56.30;;;;;;20715;6854;120366;-86
2022/07/05 02:33:59;;;;;;;3.47;3.28;;;20.40;56.40;;;;;;20777;6854;121889;-86
2022/07/05 02:36:24;;;;;;;3.20;3.10;;;20.30;56.70;;;;;;20802;6854;117664;-87
2022/07/05 02:38:50;;;;;;;3.03;2.92;;;20.20;56.30;;;;;;20796;6854;116823;-87
2022/07/05 02:41:15;;;;;;;2.90;2.70;;;20.20;56.50;;;;;;20787;6854;116310;-87
2022/07/05 02:43:41;;;;;;;3.50;3.20;;;20.10;56.60;;;;;;20580;6854;289862;-87
2022/07/05 02:46:07;;;;;;;3.30;3.10;;;20.40;56.60;;;;;;20783;6854;116441;-87
2022/07/05 02:48:32;;;;;;;3.05;2.95;;;20.50;56.20;;;;;;20794;6854;117434;-87
2022/07/05 02:50:58;;;;;;;3.63;3.27;;;20.30;56.10;;;;;;20781;6854;116777;-87
2022/07/05 02:53:23;;;;;;;3.60;3.40;;;20.10;56.20;;;;;;20585;6854;276678;-87
2022/07/05 02:55:49;;;;;;;3.17;2.97;;;20.40;55.60;;;;;;20769;6854;121301;-87
2022/07/05 02:58:16;;;;;;;3.50;3.20;;;20.40;55.60;;;;;;20781;6854;117021;-87
2022/07/05 03:00:40;;;;;;;4.10;3.80;;;20.20;55.90;;;;;;20571;6854;276228;-87
2022/07/05 03:03:06;;;;;;;3.90;3.60;;;20.40;56.00;;;;;;20595;6854;307598;-87
2022/07/05 03:05:31;;;;;;;3.85;3.53;;;20.70;55.50;;;;;;20771;6854;116693;-87
2022/07/05 03:07:57;;;;;;;4.33;3.67;;;20.60;55.80;;;;;;20477;6854;306705;-85
2022/07/05 03:10:22;;;;;;;3.60;3.40;;;20.70;55.20;;;;;;20504;6853;316244;-87
2022/07/05 03:12:48;;;;;;;3.80;3.60;;;20.90;54.90;;;;;;20509;6854;311744;-85
2022/07/05 03:15:13;;;;;;;4.10;3.80;;;21.10;54.60;;;;;;20500;6854;339035;-86
2022/07/05 03:17:39;;;;;;;3.63;3.43;;;21.20;54.50;;;;;;20714;6854;117328;-86
2022/07/05 03:20:05;;;;;;;3.30;3.10;;;20.90;54.60;;;;;;20686;6854;117699;-86
2022/07/05 03:22:30;;;;;;;3.53;3.30;;;20.60;55.30;;;;;;20490;6854;306860;-86
2022/07/05 03:24:59;;;;;;;3.53;3.33;;;20.70;55.20;;;;;;20504;6854;277125;-85
2022/07/05 03:27:24;;;;;;;3.83;3.57;;;20.90;54.20;;;;;;20739;6854;117128;-86
2022/07/05 03:29:51;;;;;;;3.60;3.40;;;20.80;54.40;;;;;;20679;6854;117631;-89
2022/07/05 03:32:17;;;;;;;3.60;3.30;;;20.40;54.90;;;;;;20711;6854;117609;-85
2022/07/05 03:34:43;;;;;;;3.17;2.97;;;20.00;56.70;;;;;;20707;6854;117683;-86
2022/07/05 03:37:08;;;;;;;3.60;3.40;;;20.00;56.00;;;;;;20509;6854;281556;-86
2022/07/05 03:39:34;;;;;;;3.50;3.20;;;20.20;55.80;;;;;;20501;6854;338982;-85
2022/07/05 03:42:00;;;;;;;3.70;3.10;;;20.60;54.90;;;;;;20477;6854;303899;-85
2022/07/05 03:44:26;;;;;;;3.45;3.03;;;20.80;53.90;;;;;;20511;6854;307085;-86
2022/07/05 03:46:51;;;;;;;3.53;3.23;;;21.10;53.20;;;;;;20705;6854;117148;-86
2022/07/05 03:49:19;;;;;;;3.60;3.40;;;20.90;53.40;;;;;;20517;6854;277696;-86
2022/07/05 03:51:45;;;;;;;3.62;3.37;;;20.90;53.10;;;;;;20497;6854;336305;-86
2022/07/05 03:54:10;;;;;;;3.78;3.00;;;21.10;52.80;;;;;;20492;6854;277727;-86
2022/07/05 03:56:36;;;;;;;3.60;3.30;;;21.20;51.80;;;;;;20513;6854;283245;-86
2022/07/05 03:59:02;;;;;;;3.30;2.95;;;21.00;52.10;;;;;;20713;6854;122209;-86
2022/07/05 04:01:28;;;;;;;3.08;2.87;;;21.00;52.10;;;;;;20504;6854;338150;-86
2022/07/05 04:03:53;;;;;;;3.00;2.70;;;21.00;51.60;;;;;;20497;6854;307156;-87
2022/07/05 04:06:19;;;;;;;2.87;2.63;;;21.20;51.50;;;;;;20724;6854;117508;-86
2022/07/05 04:08:45;;;;;;;4.77;2.90;;;20.90;51.80;;;;;;20507;6854;278536;-86
2022/07/05 04:11:12;;;;;;;3.13;2.83;;;21.00;51.60;;;;;;20712;6854;117274;-86
2022/07/05 04:13:36;;;;;;;3.43;3.00;;;20.80;51.80;;;;;;20505;6854;308115;-86
2022/07/05 04:16:04;;;;;;;3.42;3.03;;;20.80;52.10;;;;;;20484;6854;307820;-86
2022/07/05 04:18:30;;;;;;;3.30;3.10;;;21.00;52.30;;;;;;20717;6854;120299;-86
2022/07/05 04:20:55;;;;;;;3.20;2.90;;;20.80;52.60;;;;;;20703;6853;117139;-86
2022/07/05 04:23:21;;;;;;;3.47;3.23;;;20.40;53.10;;;;;;20717;6854;117751;-86
2022/07/05 04:25:46;;;;;;;4.40;3.60;;;20.10;53.70;;;;;;20504;6854;281410;-86
2022/07/05 04:28:12;;;;;;;3.65;3.45;;;20.20;53.90;;;;;;20487;6854;278167;-86
2022/07/05 04:30:37;;;;;;;3.70;3.40;;;20.50;53.50;;;;;;20707;6854;117779;-86
2022/07/05 04:33:03;;;;;;;3.53;3.33;;;20.40;53.60;;;;;;20728;6854;117193;-86
2022/07/05 04:35:29;;;;;;;3.40;3.20;;;20.10;54.20;;;;;;20723;6854;117364;-87
2022/07/05 04:37:54;;;;;;;4.43;3.70;;;19.90;54.80;;;;;;20496;6854;296351;-87
2022/07/05 04:40:20;;;;;;;4.57;3.40;;;20.10;54.80;;;;;;20718;6854;117864;-86
2022/07/05 04:42:45;;;;;;;3.62;3.42;;;20.10;54.60;;;;;;20521;6854;307570;-87
2022/07/05 04:45:12;;;;;;;3.90;3.55;;;20.30;54.50;;;;;;20772;6854;120036;-87
2022/07/05 04:47:40;;;;;;;3.23;3.07;;;20.20;54.50;;;;;;20546;6854;308383;-87
2022/07/05 04:50:07;;;;;;;3.40;3.20;;;20.30;54.50;;;;;;20701;6854;117387;-86
2022/07/05 04:52:32;;;;;;;3.50;3.30;;;20.20;54.40;;;;;;20722;6854;118139;-86
2022/07/05 04:54:58;;;;;;;3.77;3.47;;;20.00;54.80;;;;;;20722;6854;117101;-86
2022/07/05 04:57:27;;;;;;;4.12;3.33;;;19.80;55.20;;;;;;20723;6854;117360;-87
2022/07/05 04:59:52;;;;;;;3.83;3.60;;;19.70;55.60;;;;;;20489;6854;307335;-87
2022/07/05 05:02:18;;;;;;;3.67;3.40;;;19.90;55.30;;;;;;20502;6854;307605;-86
2022/07/05 05:04:43;;;;;;;3.77;3.10;;;20.30;54.70;;;;;;20715;6854;122532;-84
2022/07/05 05:07:09;;;;;;;3.20;3.00;;;20.30;54.70;;;;;;20714;6854;117207;-84
2022/07/05 05:09:34;;;;;;;3.23;3.00;;;20.00;55.00;;;;;;20707;6854;120525;-86
2022/07/05 05:12:00;;;;;;;3.10;3.00;;;19.90;55.50;;;;;;20698;6854;117391;-85
2022/07/05 05:14:26;;;;;;;3.83;2.90;;;19.80;55.70;;;;;;20713;6854;117746;-84
2022/07/05 05:16:51;;;;;;;3.30;3.00;;;19.70;55.70;;;;;;20512;6854;307765;-84
2022/07/05 05:19:17;;;;;;;3.55;3.20;;;20.00;54.60;;;;;;20512;6854;308139;-83
2022/07/05 05:21:42;;;;;;;2.67;2.47;;;20.50;54.10;;;;;;20716;6854;120534;-83
2022/07/05 05:24:08;;;;;;;3.03;2.90;;;20.50;54.00;;;;;;20712;6854;122000;-85
2022/07/05 05:26:33;;;;;;;3.45;3.00;;;20.30;54.30;;;;;;20512;6854;280664;-85
2022/07/05 05:28:59;;;;;;;3.40;3.10;;;20.50;54.10;;;;;;20564;6854;316337;-84
2022/07/05 05:31:24;;;;;;;3.30;3.00;;;20.90;53.40;;;;;;20576;6854;276882;-82
2022/07/05 05:33:50;;;;;;;4.20;2.90;;;21.20;53.10;;;;;;20778;6853;148884;-85
2022/07/05 05:36:16;;;;;;;3.47;3.25;;;21.10;53.20;;;;;;20791;6854;116966;-83
2022/07/05 05:38:41;;;;;;;3.30;3.10;;;20.80;53.60;;;;;;20581;6854;294047;-83
2022/07/05 05:41:07;;;;;;;3.37;3.10;;;20.90;53.40;;;;;;20566;6854;317215;-83
2022/07/05 05:43:33;;;;;;;5.22;3.62;;;21.20;52.80;;;;;;20780;6851;116365;-85
2022/07/05 05:45:59;;;;;;;3.50;3.30;;;21.20;52.90;;;;;;20782;6851;116663;-85
2022/07/05 05:48:25;;;;;;;3.55;3.30;;;20.90;53.40;;;;;;20592;6851;279308;-86
2022/07/05 05:50:51;;;;;;;3.37;3.13;;;21.10;53.50;;;;;;20544;6868;307309;-85
2022/07/05 05:53:16;;;;;;;3.83;3.10;;;21.40;52.90;;;;;;20748;6868;116493;-84
2022/07/05 05:55:42;;;;;;;2.95;2.75;;;21.40;53.10;;;;;;20588;6853;307903;-85
2022/07/05 05:58:15;;;;;;;3.30;3.03;;;21.50;52.60;;;;;;20781;6853;116624;-84
2022/07/05 06:00:40;;;;;;;3.40;2.70;;;21.50;52.80;;;;;;20719;6868;117384;-85
2022/07/05 06:03:06;;;;;;;3.22;2.55;;;21.40;53.10;;;;;;20732;6868;116571;-85
2022/07/05 06:05:31;;;;;;;3.33;2.78;;;21.30;53.30;;;;;;20762;6860;117572;-85
2022/07/05 06:07:57;;;;;;;3.60;3.07;;;21.20;53.30;;;;;;20541;6860;277327;-86
2022/07/05 06:10:22;;;;;;;2.93;2.83;;;21.60;52.40;;;;;;20759;6864;68085;-86
2022/07/05 06:12:51;;;;;;;3.30;3.00;;;21.70;52.30;;;;;;20520;6854;307607;-85
2022/07/05 06:15:17;;;;;;;2.80;2.70;;;22.10;51.50;;;;;;20711;6861;117359;-85
2022/07/05 06:17:42;;;;;;;3.97;2.53;;;22.50;52.10;;;;;;20671;6878;117553;-85
2022/07/05 06:20:08;;;;;;;2.35;2.15;;;22.90;52.20;;;;;;20475;6860;307815;-85
2022/07/05 06:22:34;;;;;;;2.77;2.40;;;23.80;48.80;;;;;;20510;6845;307431;-85
2022/07/05 06:24:59;;;;;;;3.60;2.30;;;24.90;46.70;;;;;;20559;6845;281041;-86
2022/07/05 06:27:25;;;;;;;4.70;2.40;;;26.10;44.30;;;;;;20735;6845;117169;-86
2022/07/05 06:29:50;;;;;;;2.77;2.20;;;26.60;44.40;;;;;;20739;6845;117362;-87
2022/07/05 06:32:16;;;;;;;7.55;2.40;;;27.00;44.10;;;;;;20729;6854;118868;-86
2022/07/05 06:34:41;;;;;;;1.93;1.83;;;27.20;43.70;;;;;;20729;6854;117895;-87
2022/07/05 06:37:07;;;;;;;2.47;2.07;;;27.40;43.10;;;;;;20745;6845;117337;-87
2022/07/05 06:39:33;;;;;;;2.10;1.90;;;27.60;42.50;;;;;;20755;6845;117191;-88
2022/07/05 06:42:00;;;;;;;2.03;1.93;;;28.00;42.10;;;;;;20714;6845;117667;-87
2022/07/05 06:44:26;;;;;;;2.40;2.20;;;28.00;42.00;;;;;;20532;6843;308081;-88
2022/07/05 06:46:51;;;;;;;2.90;1.80;;;28.70;39.20;;;;;;20754;6844;117280;-85
2022/07/05 06:49:17;;;;;;;2.25;2.00;;;29.00;39.80;;;;;;20542;6845;308561;-87
2022/07/05 06:51:43;;;;;;;2.45;1.83;;;30.10;37.80;;;;;;20746;6845;117294;-86
2022/07/05 06:54:09;;;;;;;2.00;1.90;;;30.00;37.60;;;;;;20507;6845;307766;-87
2022/07/05 06:56:38;;;;;;;3.13;1.80;;;31.00;35.70;;;;;;20744;6845;117653;-87
2022/07/05 06:59:03;;;;;;;2.00;1.80;;;31.00;36.90;;;;;;20515;6845;310502;-87
2022/07/05 07:01:29;;;;;;;3.00;1.70;;;31.70;34.40;;;;;;20524;6845;337816;-87
2022/07/05 07:03:54;;;;;;;2.05;1.77;;;32.30;33.00;;;;;;20731;6845;117966;-86
2022/07/05 07:06:20;;;;;;;2.13;1.70;;;32.50;34.00;;;;;;20543;6845;281548;-85
2022/07/05 07:11:32;;;;;;;3.10;1.80;;;33.20;32.80;;;;;;20740;6845;117336;-86
2022/07/05 07:13:58;;;;;;;1.83;1.60;;;33.20;32.80;;;;;;20709;6845;117828;-86
2022/07/05 07:16:25;;;;;;;3.40;1.70;;;33.00;33.30;;;;;;20532;6845;281256;-87
2022/07/05 07:18:50;;;;;;;4.80;2.00;;;33.20;31.90;;;;;;20723;6845;117813;-86
2022/07/05 07:21:17;;;;;;;1.43;1.33;;;33.10;32.10;;;;;;20733;6845;117007;-86
2022/07/05 07:23:43;;;;;;;1.77;1.52;;;32.80;32.60;;;;;;20528;6845;308129;-86
2022/07/05 07:26:08;;;;;;;1.77;1.50;;;32.90;31.50;;;;;;20520;6845;280092;-86
2022/07/05 07:28:35;;;;;;;2.17;1.63;;;33.20;31.60;;;;;;20519;6845;279117;-86
2022/07/05 07:31:00;;;;;;;1.57;1.47;;;33.20;31.60;;;;;;20722;6845;119348;-86
2022/07/05 07:33:28;;;;;;;1.40;1.40;;;32.60;32.30;;;;;;20756;6845;117608;-86
2022/07/05 07:35:53;;;;;;;2.15;1.40;;;32.50;32.20;;;;;;20523;6845;278206;-86
2022/07/05 07:38:19;;;;;;;3.60;1.60;;;32.50;31.70;;;;;;20538;6845;309289;-86
2022/07/05 07:40:45;;;;;;;4.23;1.40;;;32.60;32.20;;;;;;20750;6845;117542;-86
2022/07/05 07:43:10;;;;;;;2.53;1.65;;;32.40;32.10;;;;;;20525;6845;308616;-86
2022/07/05 07:45:38;;;;;;;2.27;1.60;;;32.00;32.60;;;;;;20736;6845;116619;-86
2022/07/05 07:48:03;;;;;;;1.97;1.80;;;31.90;32.50;;;;;;20706;6845;117476;-86
2022/07/05 07:50:29;;;;;;;1.70;1.60;;;31.50;33.00;;;;;;20532;6845;307675;-86
2022/07/05 07:52:55;;;;;;;2.17;1.60;;;31.50;33.20;;;;;;20538;6845;309450;-86
2022/07/05 07:55:21;;;;;;;2.47;1.90;;;31.50;33.30;;;;;;20752;6845;117105;-87
2022/07/05 07:57:46;;;;;;;2.27;1.50;;;31.50;33.90;;;;;;20540;6844;307725;-87
2022/07/05 08:00:13;;;;;;;1.47;1.43;;;31.40;33.40;;;;;;20736;6845;121049;-88
2022/07/05 08:02:38;;;;;;;1.60;1.50;;;31.40;33.30;;;;;;20734;6845;117264;-87
2022/07/05 08:05:04;;;;;;;2.47;1.50;;;31.20;33.70;;;;;;20747;6845;117272;-86
2022/07/05 08:07:30;;;;;;;1.90;1.50;;;31.00;34.00;;;;;;20528;6845;309976;-87
2022/07/05 08:09:55;;;;;;;1.60;1.50;;;31.20;33.00;;;;;;20732;6845;146503;-87
2022/07/05 08:12:21;;;;;;;2.60;1.60;;;31.30;33.30;;;;;;20514;6845;310174;-87
2022/07/05 08:14:46;;;;;;;2.80;1.70;;;31.50;32.70;;;;;;20756;6845;117590;-86
2022/07/05 08:17:13;;;;;;;2.03;1.60;;;31.70;32.50;;;;;;20537;6845;306475;-88
2022/07/05 08:22:26;;;;;;;1.70;1.60;;;31.70;32.50;;;;;;20754;6845;117763;-87
2022/07/05 08:24:51;;;;;;;1.43;1.33;;;31.50;32.60;;;;;;20753;6845;117228;-86
2022/07/05 08:27:18;;;;;;;5.67;1.77;;;31.40;32.50;;;;;;20759;6845;118559;-86
2022/07/05 08:29:43;;;;;;;1.40;1.40;;;31.20;32.80;;;;;;20757;6845;118509;-87
2022/07/05 08:32:10;;;;;;;1.97;1.40;;;31.20;33.30;;;;;;20726;6845;118510;-87
2022/07/05 08:34:36;;;;;;;1.90;1.50;;;31.60;32.70;;;;;;20540;6845;308932;-87
2022/07/05 08:37:03;;;;;;;1.50;1.40;;;31.60;32.70;;;;;;20749;6845;117397;-87
2022/07/05 08:39:29;;;;;;;1.97;1.30;;;31.80;32.80;;;;;;20747;6845;116886;-87
2022/07/05 08:41:54;;;;;;;1.97;1.50;;;31.70;33.20;;;;;;20512;6845;278980;-86
2022/07/05 08:44:21;;;;;;;2.60;1.43;;;32.30;32.00;;;;;;20541;6845;279424;-87
2022/07/05 08:46:46;;;;;;;1.73;1.48;;;32.30;31.90;;;;;;20537;6845;325986;-86
2022/07/05 08:49:12;;;;;;;3.60;1.67;;;32.60;32.10;;;;;;20551;6845;308592;-86
2022/07/05 08:51:38;;;;;;;2.03;1.40;;;32.80;31.80;;;;;;20534;6845;308121;-87
2022/07/05 08:54:05;;;;;;;1.60;1.50;;;33.00;30.60;;;;;;20733;6845;117377;-86
2022/07/05 08:56:29;;;;;;;1.50;1.40;;;32.80;30.90;;;;;;20751;6845;119452;-87
2022/07/05 08:58:55;;;;;;;1.50;1.30;;;32.50;31.20;;;;;;20749;6845;118299;-87
2022/07/05 09:01:21;;;;;;;1.70;1.60;;;32.30;31.70;;;;;;20749;6845;117849;-85
2022/07/05 09:03:46;;;;;;;2.73;1.40;;;32.20;32.00;;;;;;20543;6845;278644;-84
2022/07/05 09:06:12;;;;;;;2.30;1.35;;;32.40;30.80;;;;;;20498;6845;310397;-84
2022/07/05 09:08:41;;;;;;;1.48;1.37;;;32.60;31.60;;;;;;20546;6843;307394;-85
2022/07/05 09:11:08;;;;;;;1.50;1.40;;;32.80;31.20;;;;;;20764;6845;117196;-85
2022/07/05 09:13:33;;;;;;;1.93;1.30;;;32.70;31.30;;;;;;20552;6845;278809;-87
2022/07/05 09:15:59;;;;;;;1.73;1.40;;;32.80;30.80;;;;;;20733;6845;117333;-84
2022/07/05 09:18:47;;;;;;;2.23;1.47;;;32.80;31.00;;;;;;20744;6845;117331;-84
2022/07/05 09:21:25;;;;;;;1.43;1.30;;;32.50;30.60;;;;;;20737;6845;117338;-85
2022/07/05 09:24:00;;;;;;;2.17;1.10;;;32.30;30.50;;;;;;20720;6845;119497;-85
2022/07/05 09:26:39;;;;;;;3.57;1.93;;;32.20;30.60;;;;;;20543;6845;308129;-84
2022/07/05 09:29:04;;;;;;;3.50;3.20;;;32.50;29.50;;;;;;20750;6845;118485;-84
2022/07/05 09:31:33;;;;;;;3.87;3.57;;;32.40;29.90;;;;;;20719;6845;117398;-84
2022/07/05 09:34:05;;;;;;;2.83;1.90;;;32.20;30.00;;;;;;20685;6845;117676;-84
2022/07/05 09:36:50;;;;;;;1.63;1.53;;;32.00;30.10;;;;;;20742;6845;117657;-84
2022/07/05 09:39:16;;;;;;;4.00;3.73;;;31.90;30.00;;;;;;20743;6845;117306;-83
2022/07/05 09:41:41;;;;;;;2.53;2.37;;;31.80;29.90;;;;;;20736;6845;117156;-85
2022/07/05 09:44:07;;;;;;;2.40;2.17;;;31.70;30.00;;;;;;20507;6845;278634;-85
2022/07/05 09:46:32;;;;;;;12.40;11.40;;;32.00;29.70;;;;;;20537;6845;308787;-86
2022/07/05 09:48:58;;;;;;;2.40;2.20;;;32.40;28.70;;;;;;20722;6845;119642;-86
2022/07/05 09:51:24;;;;;;;10.30;9.35;;;32.70;28.40;;;;;;20535;6845;309044;-85
2022/07/05 09:53:50;;;;;;;3.20;1.73;;;32.70;28.40;;;;;;20723;6845;117795;-84
2022/07/05 09:56:17;;;;;;;1.93;1.60;;;32.70;29.00;;;;;;20752;6845;117601;-86
2022/07/05 09:58:42;;;;;;;1.70;1.60;;;32.70;29.00;;;;;;20752;6845;117371;-85
2022/07/05 10:01:24;;;;;;;2.20;2.00;;;32.70;29.10;;;;;;20749;6845;117559;-85
2022/07/05 10:03:54;;;;;;;2.67;1.60;;;32.80;28.90;;;;;;20524;6845;279058;-86
2022/07/05 10:06:22;;;;;;;2.33;1.60;;;33.20;28.20;;;;;;20533;6845;337652;-86
2022/07/05 10:08:49;;;;;;;1.50;1.40;;;33.50;27.80;;;;;;20545;6845;279142;-86
2022/07/05 10:11:14;;;;;;;5.50;5.10;;;33.70;25.80;;;;;;20731;6845;117323;-86
2022/07/05 10:13:39;;;;;;;5.60;5.03;;;33.30;26.50;;;;;;20740;6845;121801;-88
2022/07/05 10:16:05;;;;;;;2.97;2.73;;;32.50;27.00;;;;;;20518;6845;280338;-87
2022/07/05 10:18:32;;;;;;;1.83;1.73;;;32.40;26.40;;;;;;20747;6844;117573;-86
2022/07/05 10:20:58;;;;;;;1.43;1.33;;;32.10;26.90;;;;;;20747;6844;117503;-87
2022/07/05 10:23:24;;;;;;;2.33;1.60;;;31.80;27.40;;;;;;20530;6845;279768;-86
2022/07/05 10:25:51;;;;;;;1.10;1.10;;;32.20;25.90;;;;;;20523;6845;304272;-86
2022/07/05 10:28:15;;;;;;;1.70;1.60;;;32.10;25.90;;;;;;20755;6845;117519;-86
2022/07/05 10:30:44;;;;;;;2.15;1.95;;;32.00;26.70;;;;;;20711;6845;117786;-85
2022/07/05 10:33:07;;;;;;;3.50;3.20;;;31.50;27.00;;;;;;20741;6845;119292;-85
2022/07/05 10:35:32;;;;;;;4.07;2.10;;;31.10;27.40;;;;;;20532;6845;307208;-86
2022/07/05 10:37:58;;;;;;;3.70;1.77;;;31.10;27.20;;;;;;20521;6845;311373;-86
2022/07/05 10:40:23;;;;;;;2.40;1.23;;;31.30;26.20;;;;;;20530;6845;308555;-87
2022/07/05 10:42:49;;;;;;;1.83;0.93;;;31.60;26.80;;;;;;20754;6845;118004;-84
2022/07/05 10:45:24;;;;;;;1.00;1.00;;;31.60;26.80;;;;;;20753;6845;117286;-85
2022/07/05 10:48:13;;;;;;;2.57;1.10;;;31.90;25.60;;;;;;20515;6845;308767;-86
2022/07/05 10:51:13;;;;;;;1.47;1.10;;;31.80;25.50;;;;;;20749;6845;117275;-87
2022/07/05 10:53:37;;;;;;;1.30;1.20;;;32.10;26.40;;;;;;20534;6845;296987;-86
2022/07/05 10:56:03;;;;;;;1.30;1.20;;;32.30;26.50;;;;;;20524;6845;337606;-86
2022/07/05 10:58:38;;;;;;;2.40;0.97;;;32.50;26.50;;;;;;20560;6845;307500;-85
2022/07/05 11:01:21;;;;;;;1.90;1.37;;;32.60;27.80;;;;;;20755;6845;117751;-87
2022/07/05 11:04:02;;;;;;;1.30;1.20;;;32.50;27.20;;;;;;20764;6845;117807;-88
2022/07/05 11:06:31;;;;;;;2.50;1.20;;;32.30;26.80;;;;;;20773;6845;118880;-87
2022/07/05 11:08:56;;;;;;;2.20;1.23;;;31.90;26.90;;;;;;20574;6845;289603;-87
2022/07/05 11:11:25;;;;;;;2.90;1.10;;;31.80;26.80;;;;;;20534;6845;304603;-87
2022/07/05 11:13:50;;;;;;;1.47;1.10;;;31.80;26.50;;;;;;20553;6845;309701;-88
2022/07/05 11:16:19;;;;;;;1.37;1.27;;;31.70;26.10;;;;;;20541;6845;332831;-89
2022/07/05 11:18:45;;;;;;;1.50;1.10;;;31.70;25.80;;;;;;20750;6845;117317;-88
2022/07/05 11:21:20;;;;;;;1.33;1.23;;;31.30;26.00;;;;;;20532;6845;278592;-87
2022/07/05 11:23:46;;;;;;;2.17;1.10;;;31.60;26.10;;;;;;20528;6845;278143;-87
2022/07/05 11:26:13;;;;;;;1.10;1.03;;;31.60;26.00;;;;;;20729;6845;121272;-87
2022/07/05 11:28:43;;;;;;;1.00;1.00;;;31.60;26.30;;;;;;20747;6845;118576;-87
2022/07/05 11:31:08;;;;;;;1.93;1.10;;;31.50;26.60;;;;;;20717;6843;117390;-85
2022/07/05 11:33:33;;;;;;;1.13;1.13;;;31.40;26.30;;;;;;20756;6844;117950;-86
2022/07/05 11:35:59;;;;;;;1.53;1.10;;;31.40;25.90;;;;;;20435;6845;310113;-86
2022/07/05 11:38:24;;;;;;;2.67;0.93;;;31.50;25.40;;;;;;20757;6845;117510;-89
2022/07/05 11:40:51;;;;;;;2.05;1.00;;;31.80;25.90;;;;;;20535;6845;306566;-86
2022/07/05 11:43:16;;;;;;;2.78;1.00;;;31.80;25.90;;;;;;20522;6845;308609;-86
2022/07/05 11:45:43;;;;;;;1.52;0.98;;;32.00;24.90;;;;;;20521;6845;278582;-86
2022/07/05 11:48:07;;;;;;;1.27;0.90;;;32.30;25.60;;;;;;20526;6845;282250;-86
2022/07/05 11:50:40;;;;;;;1.37;1.30;;;32.30;25.00;;;;;;20710;6845;114645;-85
2022/07/05 11:53:10;;;;;;;1.37;1.20;;;31.60;26.20;;;;;;20758;6845;117584;-86
2022/07/05 11:55:33;;;;;;;4.73;0.93;;;31.60;26.20;;;;;;20757;6845;117121;-86
2022/07/05 11:57:59;;;;;;;2.20;1.10;;;31.10;26.60;;;;;;20529;6845;307243;-86
2022/07/05 12:00:28;;;;;;;1.17;0.73;;;31.00;26.70;;;;;;20770;6845;116922;-87
2022/07/05 12:02:54;;;;;;;0.70;0.70;;;31.00;26.70;;;;;;20714;6845;117424;-86
2022/07/05 12:05:19;;;;;;;1.57;0.97;;;30.90;26.90;;;;;;20764;6845;117973;-86
2022/07/05 12:07:48;;;;;;;1.03;0.93;;;30.80;27.00;;;;;;20555;6845;339033;-86
2022/07/05 12:13:06;;;;;;;1.37;1.20;;;31.40;25.90;;;;;;20620;6845;338048;-85
2022/07/05 12:15:32;;;;;;;3.17;1.10;;;31.50;25.50;;;;;;20831;6845;116340;-84
2022/07/05 12:17:57;;;;;;;2.00;1.20;;;31.40;26.00;;;;;;20600;6845;307544;-86
2022/07/05 12:20:23;;;;;;;1.10;1.10;;;31.40;25.80;;;;;;20834;6845;67082;-86
2022/07/05 12:22:49;;;;;;;1.70;0.90;;;31.20;25.70;;;;;;20821;6845;116223;-84
2022/07/05 12:25:14;;;;;;;2.60;1.20;;;31.10;26.10;;;;;;20833;6845;116806;-86
2022/07/05 12:27:42;;;;;;;1.23;1.10;;;30.90;26.30;;;;;;20821;6845;119513;-86
2022/07/05 12:30:09;;;;;;;1.13;1.00;;;30.80;26.20;;;;;;20799;6845;118764;-86
2022/07/05 12:32:36;;;;;;;1.30;1.17;;;30.70;26.60;;;;;;20785;6632;278544;-86
2022/07/05 12:35:10;;;;;;;1.37;1.10;;;31.20;25.80;;;;;;20719;6729;305215;-86
2022/07/05 12:37:45;;;;;;;1.57;1.00;;;31.20;25.30;;;;;;20701;6786;289557;-87
2022/07/05 12:40:21;;;;;;;2.00;1.00;;;31.40;25.40;;;;;;21004;6714;116371;-88